Time;durP1;ratioP1;P1;durP2;ratioP2;P2;SDS_P1;SDS_P2;PMS_P1;PMS_P2;Temp;Humidity;BMP_temperature;BMP_pressure;BME280_temperature;BME280_humidity;BME280_pressure;Samples;Min_cycle;Max_cycle;Signal;HPM_P1;HPM_P2
2023/10/23 00:04:20;;;;;;;4.10;1.10;;;;;;;11.75;68.64;100121.78;10316234;28;20050;-62
2023/10/23 00:09:22;;;;;;;3.13;1.20;;;;;;;11.68;69.01;100125.25;10317538;28;20508;-62
2023/10/23 00:14:23;;;;;;;7.55;1.20;;;;;;;11.62;69.02;100130.56;10317389;28;20422;-62
2023/10/23 00:19:26;;;;;;;2.33;0.80;;;;;;;11.55;68.77;100133.16;10289703;28;20046;-62
2023/10/23 00:24:28;;;;;;;5.35;1.00;;;;;;;11.46;69.05;100145.88;10317411;28;20042;-62
2023/10/23 00:29:29;;;;;;;3.75;1.45;;;;;;;11.42;68.93;100131.13;10331223;28;20049;-62
2023/10/23 00:34:30;;;;;;;2.35;0.80;;;;;;;11.34;69.01;100142.00;10315157;28;20046;-62
2023/10/23 00:39:32;;;;;;;5.00;1.60;;;;;;;11.27;69.08;100146.44;10316336;28;20046;-61
2023/10/23 00:44:33;;;;;;;4.35;1.42;;;;;;;11.22;68.82;100144.31;10317700;28;20046;-62
2023/10/23 00:49:35;;;;;;;4.10;1.50;;;;;;;11.18;68.63;100155.66;10316619;28;20043;-61
2023/10/23 00:54:38;;;;;;;6.35;1.08;;;;;;;11.14;68.98;100154.31;10318615;28;20042;-61
2023/10/23 00:59:40;;;;;;;2.50;1.17;;;;;;;11.08;69.12;100148.69;10321202;28;20074;-61
2023/10/23 01:04:42;;;;;;;3.63;1.55;;;;;;;11.00;69.35;100150.59;10322291;28;20393;-61
2023/10/23 01:09:43;;;;;;;3.80;1.10;;;;;;;10.96;69.09;100157.34;10338796;28;20141;-62
2023/10/23 01:14:45;;;;;;;6.80;1.27;;;;;;;10.89;68.89;100159.97;10322049;28;20104;-61
2023/10/23 01:19:46;;;;;;;5.28;1.55;;;;;;;10.80;69.39;100158.34;10320500;28;20046;-62
2023/10/23 01:24:49;;;;;;;5.40;1.33;;;;;;;10.75;69.17;100153.53;10318176;28;20035;-68
2023/10/23 01:29:51;;;;;;;1.33;1.00;;;;;;;10.65;69.81;100152.97;10321615;28;20508;-62
2023/10/23 01:34:52;;;;;;;8.05;1.30;;;;;;;10.63;69.50;100161.19;10318033;28;20046;-62
2023/10/23 01:39:54;;;;;;;4.88;1.58;;;;;;;10.57;69.54;100153.84;10321089;28;20038;-61
2023/10/23 01:44:56;;;;;;;3.45;1.17;;;;;;;10.50;69.35;100161.81;10323738;28;20048;-62
2023/10/23 01:49:58;;;;;;;5.35;1.30;;;;;;;10.30;69.93;100166.00;10320853;28;20055;-62
2023/10/23 01:54:59;;;;;;;4.00;1.20;;;;;;;10.35;69.65;100157.38;10321656;28;20066;-62
2023/10/23 02:00:07;;;;;;;4.78;1.15;;;;;;;10.33;69.63;100160.28;10322813;28;20050;-62
2023/10/23 02:05:08;;;;;;;3.50;1.23;;;;;;;10.30;69.30;100166.00;10297159;28;20165;-61
2023/10/23 02:10:10;;;;;;;4.15;2.03;;;;;;;10.23;69.45;100163.16;10336660;28;20061;-63
2023/10/23 02:15:12;;;;;;;5.10;1.15;;;;;;;10.19;69.56;100164.53;10321229;28;20129;-62
2023/10/23 02:20:14;;;;;;;4.63;1.50;;;;;;;10.16;69.41;100164.03;10324130;28;20050;-66
2023/10/23 02:25:15;;;;;;;3.30;1.02;;;;;;;10.11;69.47;100175.31;10324396;28;20050;-61
2023/10/23 02:30:17;;;;;;;2.05;0.85;;;;;;;10.05;69.50;100166.13;10322451;28;20705;-61
2023/10/23 02:35:18;;;;;;;2.10;0.73;;;;;;;9.96;69.87;100159.13;10321537;28;20144;-61
2023/10/23 02:40:21;;;;;;;2.30;0.60;;;;;;;9.93;69.76;100168.38;10320352;28;20042;-61
2023/10/23 02:45:22;;;;;;;1.30;0.70;;;;;;;9.89;69.59;100168.88;10317955;28;20656;-62
2023/10/23 02:50:24;;;;;;;3.65;0.70;;;;;;;9.82;70.00;100184.03;10335525;28;20122;-61
2023/10/23 02:55:26;;;;;;;1.52;0.73;;;;;;;9.81;69.74;100183.19;10317489;28;20046;-62
2023/10/23 03:00:28;;;;;;;2.10;0.75;;;;;;;9.69;70.00;100188.09;10320779;28;20042;-61
2023/10/23 03:05:30;;;;;;;3.53;0.70;;;;;;;9.69;69.87;100201.53;10319510;28;20050;-61
2023/10/23 03:10:32;;;;;;;1.25;0.70;;;;;;;9.75;70.15;100189.25;10320867;28;20133;-61
2023/10/23 03:15:33;;;;;;;2.38;0.52;;;;;;;9.74;70.04;100201.03;10317207;28;20069;-61
2023/10/23 03:20:37;;;;;;;3.15;0.60;;;;;;;9.79;70.14;100205.84;10317890;28;20046;-62
2023/10/23 03:25:39;;;;;;;2.83;0.60;;;;;;;9.80;70.28;100203.00;10333414;28;20045;-62
2023/10/23 03:30:40;;;;;;;3.15;1.52;;;;;;;9.77;70.17;100192.59;10319620;28;20053;-63
2023/10/23 03:35:42;;;;;;;3.90;1.55;;;;;;;9.71;70.11;100201.34;10317642;28;20068;-63
2023/10/23 03:40:59;;;;;;;2.42;0.73;;;;;;;9.58;70.23;100204.59;10317502;28;20042;-62
2023/10/23 03:46:02;;;;;;;2.70;0.60;;;;;;;9.52;70.10;100205.28;10317022;28;20500;-63
2023/10/23 03:51:04;;;;;;;3.15;0.70;;;;;;;9.52;70.04;100197.25;10333120;28;20462;-62
2023/10/23 03:56:06;;;;;;;3.55;1.58;;;;;;;9.53;70.16;100198.91;10316881;28;20054;-63
2023/10/23 04:01:07;;;;;;;6.57;2.90;;;;;;;9.58;70.10;100204.59;10317349;28;20057;-63
2023/10/23 04:06:09;;;;;;;54.20;5.32;;;;;;;9.60;69.90;100197.22;10317166;28;20074;-62
2023/10/23 04:11:14;;;;;;;33.03;3.53;;;;;;;9.58;70.27;100196.56;10318143;28;20050;-62
2023/10/23 04:16:15;;;;;;;22.58;3.30;;;;;;;9.59;70.30;100192.00;10316510;28;20568;-62
2023/10/23 04:21:17;;;;;;;16.38;2.72;;;;;;;9.65;70.49;100194.00;10316737;28;20073;-63
2023/10/23 04:26:19;;;;;;;6.57;1.73;;;;;;;9.72;70.34;100178.88;10314454;28;20063;-62
2023/10/23 04:31:20;;;;;;;6.15;1.65;;;;;;;9.80;70.60;100169.97;10321414;28;20054;-62
2023/10/23 04:36:21;;;;;;;7.18;2.55;;;;;;;9.91;70.53;100169.53;10324636;28;20145;-62
2023/10/23 04:41:23;;;;;;;4.13;1.90;;;;;;;10.01;70.27;100172.00;10323183;28;20070;-62
2023/10/23 04:46:24;;;;;;;2.60;1.30;;;;;;;10.02;70.64;100166.47;10324824;28;20050;-61
2023/10/23 04:51:26;;;;;;;5.30;1.80;;;;;;;9.99;71.02;100174.03;10326115;28;20061;-61
2023/10/23 04:56:27;;;;;;;4.93;1.40;;;;;;;9.95;71.04;100176.22;10323592;28;20089;-61
2023/10/23 05:01:29;;;;;;;5.22;1.80;;;;;;;10.06;70.42;100175.84;10324585;28;20053;-61
2023/10/23 05:06:30;;;;;;;3.60;1.85;;;;;;;10.08;70.78;100176.50;10339199;28;20053;-61
2023/10/23 05:11:32;;;;;;;2.78;1.70;;;;;;;10.18;70.72;100168.22;10324798;28;20144;-62
2023/10/23 05:16:34;;;;;;;4.00;1.50;;;;;;;10.21;70.58;100169.69;10323271;28;20046;-61
2023/10/23 05:21:35;;;;;;;2.85;1.15;;;;;;;10.20;70.62;100166.19;10324742;28;20061;-62
2023/10/23 05:26:37;;;;;;;2.53;0.95;;;;;;;10.17;70.65;100166.56;10284783;28;20051;-62
2023/10/23 05:31:38;;;;;;;3.22;1.40;;;;;;;10.10;70.65;100177.16;10282125;28;20051;-62
2023/10/23 05:36:40;;;;;;;5.78;1.08;;;;;;;10.05;70.13;100182.25;10282320;28;20129;-62
2023/10/23 05:41:41;;;;;;;6.95;1.42;;;;;;;10.01;70.65;100186.28;10282439;28;20042;-61
2023/10/23 05:46:43;;;;;;;7.60;2.28;;;;;;;9.98;70.64;100197.38;10280447;28;20053;-62
2023/10/23 05:51:44;;;;;;;8.07;2.10;;;;;;;9.95;70.41;100203.09;10282531;28;20457;-62
2023/10/23 05:56:45;;;;;;;9.98;4.10;;;;;;;9.98;70.72;100210.81;10280205;28;20043;-61
2023/10/23 06:01:47;;;;;;;10.65;2.72;;;;;;;10.06;70.63;100212.59;10276838;28;20051;-67
2023/10/23 06:06:48;;;;;;;44.53;3.97;;;;;;;10.07;70.75;100203.53;10282274;28;20050;-67
2023/10/23 06:11:50;;;;;;;16.10;2.70;;;;;;;10.06;70.66;100210.75;10288858;28;20050;-67
2023/10/23 06:16:51;;;;;;;7.22;2.53;;;;;;;10.01;70.67;100217.66;10283744;28;20493;-68
2023/10/23 06:21:53;;;;;;;5.05;2.45;;;;;;;10.03;70.85;100221.88;10272328;28;20050;-68
2023/10/23 06:26:55;;;;;;;7.35;3.08;;;;;;;10.11;71.01;100223.63;10286156;28;20140;-67
2023/10/23 06:31:57;;;;;;;5.03;2.83;;;;;;;10.23;71.42;100216.03;10283697;28;20057;-67
2023/10/23 06:36:58;;;;;;;5.53;3.50;;;;;;;10.26;71.27;100210.31;10283397;28;20047;-68
2023/10/23 06:42:00;;;;;;;9.02;3.22;;;;;;;10.35;70.84;100220.03;10297290;28;20047;-67
2023/10/23 06:47:01;;;;;;;7.07;2.13;;;;;;;10.31;71.18;100227.59;10284371;28;20097;-66
2023/10/23 06:52:04;;;;;;;7.85;2.50;;;;;;;10.38;71.15;100227.72;10282544;28;20486;-67
2023/10/23 06:57:06;;;;;;;14.32;3.28;;;;;;;10.47;71.00;100232.03;10285041;28;20049;-67
2023/10/23 07:02:09;;;;;;;14.45;2.70;;;;;;;10.51;71.23;100219.09;10294879;28;20058;-67
2023/10/23 07:07:10;;;;;;;17.20;1.90;;;;;;;10.50;71.21;100229.00;10284512;28;20081;-67
2023/10/23 07:12:29;;;;;;;15.57;2.40;;;;;;;10.58;71.46;100224.56;10284569;28;20114;-67
2023/10/23 07:17:30;;;;;;;7.90;2.35;;;;;;;10.67;70.99;100227.03;10288085;28;20086;-67
2023/10/23 07:22:35;;;;;;;4.90;2.40;;;;;;;10.81;70.80;100221.88;10299566;28;20051;-67
2023/10/23 07:27:36;;;;;;;6.97;2.58;;;;;;;10.68;71.18;100222.47;10282133;28;20061;-66
2023/10/23 07:32:38;;;;;;;12.13;5.50;;;;;;;10.71;71.37;100214.06;10281730;28;20050;-67
2023/10/23 07:37:39;;;;;;;10.70;4.13;;;;;;;10.70;71.33;100207.84;10282233;28;20117;-67
2023/10/23 07:42:41;;;;;;;11.77;4.57;;;;;;;10.90;71.36;100202.81;10282919;28;20046;-67
2023/10/23 07:47:42;;;;;;;10.80;5.10;;;;;;;11.13;70.99;100199.22;10284146;28;20576;-67
2023/10/23 07:52:44;;;;;;;14.80;5.07;;;;;;;11.27;71.67;100194.88;10278609;28;21304;-66
2023/10/23 07:57:45;;;;;;;14.50;5.13;;;;;;;11.54;71.26;100179.13;10306750;28;20048;-65
2023/10/23 08:02:47;;;;;;;11.90;4.78;;;;;;;11.70;71.33;100162.75;10325430;28;20111;-65
2023/10/23 08:07:48;;;;;;;20.20;4.72;;;;;;;11.75;71.66;100160.34;10326477;28;20108;-65
2023/10/23 08:12:50;;;;;;;10.00;4.25;;;;;;;11.82;71.63;100163.94;10329093;28;20046;-65
2023/10/23 08:17:51;;;;;;;13.65;5.22;;;;;;;12.03;71.70;100162.34;10330233;28;20062;-64
2023/10/23 08:22:53;;;;;;;16.98;5.78;;;;;;;12.25;71.25;100157.81;10327036;28;20913;-64
2023/10/23 08:27:54;;;;;;;23.20;6.43;;;;;;;12.45;71.47;100160.72;10333889;28;20046;-64
2023/10/23 08:32:56;;;;;;;16.50;6.32;;;;;;;12.64;71.41;100172.72;10329214;28;20082;-64
2023/10/23 08:37:57;;;;;;;17.83;6.20;;;;;;;12.89;71.04;100157.78;10326529;28;20509;-63
2023/10/23 08:42:59;;;;;;;15.35;5.18;;;;;;;13.05;70.97;100151.25;10324310;28;20054;-64
2023/10/23 08:48:01;;;;;;;11.15;4.05;;;;;;;13.19;70.71;100152.16;10324954;28;20398;-63
2023/10/23 08:53:07;;;;;;;10.30;4.00;;;;;;;13.39;70.80;100149.63;10324596;28;20488;-63
2023/10/23 08:58:13;;;;;;;10.30;4.65;;;;;;;13.46;70.92;100160.44;10325280;28;20050;-65
2023/10/23 09:03:15;;;;;;;13.10;4.28;;;;;;;13.55;70.94;100161.13;10324842;28;20113;-65
2023/10/23 09:08:37;;;;;;;11.18;4.40;;;;;;;13.58;71.08;100149.91;10324193;28;20058;-65
2023/10/23 09:13:40;;;;;;;7.90;3.75;;;;;;;13.81;70.64;100152.31;10326851;28;20042;-65
2023/10/23 09:18:49;;;;;;;6.90;2.58;;;;;;;14.02;70.30;100144.06;10322555;28;20130;-66
2023/10/23 09:24:00;;;;;;;6.28;1.67;;;;;;;14.17;70.00;100137.63;10325882;28;20097;-66
2023/10/23 09:29:02;;;;;;;4.72;1.98;;;;;;;14.26;69.76;100137.25;10323022;28;20073;-66
2023/10/23 09:34:03;;;;;;;8.27;2.30;;;;;;;14.52;69.45;100124.78;10328530;28;20052;-67
2023/10/23 09:39:06;;;;;;;5.68;2.40;;;;;;;14.72;69.31;100114.00;10324610;28;20116;-66
2023/10/23 09:44:08;;;;;;;6.18;2.42;;;;;;;14.85;69.05;100100.47;10325309;28;20065;-66
2023/10/23 09:49:10;;;;;;;5.35;1.52;;;;;;;15.05;68.76;100113.13;10320020;28;21067;-67
2023/10/23 09:54:17;;;;;;;9.75;3.67;;;;;;;15.22;68.22;100108.06;10323948;28;20145;-67
2023/10/23 09:59:24;;;;;;;4.30;2.08;;;;;;;15.31;68.38;100108.69;10322048;28;20057;-67
2023/10/23 10:04:41;;;;;;;2.58;1.50;;;;;;;15.47;68.31;100108.22;10323106;28;20038;-65
2023/10/23 10:09:44;;;;;;;4.70;1.45;;;;;;;15.49;67.68;100100.69;10325219;28;20043;-66
2023/10/23 10:14:46;;;;;;;5.13;2.33;;;;;;;15.61;67.34;100104.41;10322394;28;20060;-65
2023/10/23 10:19:49;;;;;;;4.97;2.42;;;;;;;15.58;67.05;100110.25;10331275;28;20047;-66
2023/10/23 10:24:52;;;;;;;5.22;2.42;;;;;;;15.64;67.15;100100.44;10325038;28;20118;-66
2023/10/23 10:29:53;;;;;;;6.55;2.22;;;;;;;15.76;66.53;100101.47;10326706;28;20058;-65
2023/10/23 10:35:00;;;;;;;19.45;5.93;;;;;;;15.81;66.23;100089.97;10327547;28;20042;-66
2023/10/23 10:40:06;;;;;;;5.87;2.23;;;;;;;15.86;66.32;100088.25;10328845;28;20061;-64
2023/10/23 10:45:09;;;;;;;4.60;2.30;;;;;;;16.11;65.92;100082.03;10326026;28;20042;-65
2023/10/23 10:50:12;;;;;;;3.67;1.38;;;;;;;16.20;65.62;100069.06;10324598;28;20101;-66
2023/10/23 10:55:17;;;;;;;4.22;1.38;;;;;;;16.32;65.07;100061.06;10327608;28;20106;-66
2023/10/23 11:00:18;;;;;;;5.07;1.90;;;;;;;16.46;64.86;100062.59;10338176;28;20054;-65
2023/10/23 11:05:20;;;;;;;4.25;1.15;;;;;;;16.45;64.98;100055.53;10329067;28;20112;-66
2023/10/23 11:10:21;;;;;;;2.55;1.50;;;;;;;16.62;64.59;100034.88;10319259;28;20046;-65
2023/10/23 11:15:23;;;;;;;4.90;1.35;;;;;;;16.76;64.22;100029.34;10326773;28;20123;-65
2023/10/23 11:20:30;;;;;;;4.43;1.30;;;;;;;16.96;64.05;100026.44;10318413;28;20514;-64
2023/10/23 11:25:34;;;;;;;5.50;1.63;;;;;;;17.03;63.70;100027.19;10321630;28;20046;-65
2023/10/23 11:30:48;;;;;;;2.72;0.82;;;;;;;17.09;63.64;100001.03;10297632;28;20034;-67
2023/10/23 11:35:51;;;;;;;2.63;1.00;;;;;;;17.24;63.31;99996.84;10314183;28;20046;-64
2023/10/23 11:40:53;;;;;;;9.10;1.13;;;;;;;17.37;62.97;99993.13;10316123;28;20069;-65
2023/10/23 11:45:54;;;;;;;3.08;1.00;;;;;;;17.48;62.73;99983.38;10317335;28;20050;-65
2023/10/23 11:50:56;;;;;;;4.47;1.10;;;;;;;17.43;62.75;99975.06;10317946;28;20398;-65
2023/10/23 11:55:58;;;;;;;3.33;1.02;;;;;;;17.53;62.71;99967.19;10315881;28;20065;-65
2023/10/23 12:00:59;;;;;;;2.95;0.80;;;;;;;17.73;62.27;99966.06;10315775;28;20042;-65
2023/10/23 12:06:00;;;;;;;6.05;1.70;;;;;;;17.77;61.96;99961.81;10317433;28;20720;-66
2023/10/23 12:11:03;;;;;;;4.20;1.00;;;;;;;17.86;62.04;99959.63;10312066;28;20057;-64
2023/10/23 12:16:04;;;;;;;3.47;1.02;;;;;;;18.07;61.61;99945.47;10331256;28;20046;-65
2023/10/23 12:21:06;;;;;;;3.97;0.80;;;;;;;18.27;61.46;99944.31;10317588;28;20129;-66
2023/10/23 12:26:07;;;;;;;3.90;0.85;;;;;;;18.29;61.11;99932.13;10316933;28;20773;-66
2023/10/23 12:31:09;;;;;;;4.38;0.82;;;;;;;18.39;60.91;99929.63;10316809;28;20054;-66
2023/10/23 12:36:25;;;;;;;4.85;0.90;;;;;;;18.51;60.61;99924.16;10317706;28;20425;-66
2023/10/23 12:41:26;;;;;;;3.45;1.00;;;;;;;18.69;60.38;99909.56;10317784;28;20046;-66
2023/10/23 12:46:28;;;;;;;3.40;0.82;;;;;;;18.78;60.13;99904.59;10314038;28;20058;-66
2023/10/23 12:51:30;;;;;;;4.35;1.73;;;;;;;18.60;60.41;99900.97;10319515;28;20062;-66
2023/10/23 12:56:32;;;;;;;2.75;1.55;;;;;;;18.60;60.38;99894.66;10323788;28;20510;-66
2023/10/23 13:01:34;;;;;;;4.53;1.20;;;;;;;18.60;60.29;99881.91;10321436;28;20521;-66
2023/10/23 13:06:35;;;;;;;2.72;0.70;;;;;;;18.42;60.27;99869.28;10322683;28;20034;-66
2023/10/23 13:11:37;;;;;;;7.05;0.82;;;;;;;18.32;60.40;99851.88;10320517;28;20046;-66
2023/10/23 13:16:38;;;;;;;2.22;0.55;;;;;;;18.25;60.41;99841.16;10337072;28;20513;-66
2023/10/23 13:21:40;;;;;;;3.13;0.70;;;;;;;18.24;60.50;99834.03;10310029;28;20075;-67
2023/10/23 13:26:41;;;;;;;1.55;0.47;;;;;;;18.07;60.76;99817.63;10335738;28;20397;-66
2023/10/23 13:31:48;;;;;;;6.28;1.10;;;;;;;18.01;61.03;99815.88;10323872;28;20043;-66
2023/10/23 13:36:49;;;;;;;6.47;0.80;;;;;;;17.99;60.98;99809.81;10318985;28;20038;-67
2023/10/23 13:41:53;;;;;;;7.13;0.95;;;;;;;17.95;61.10;99795.03;10319496;28;20046;-67
2023/10/23 13:46:54;;;;;;;5.78;0.80;;;;;;;17.77;61.71;99782.38;10317915;28;20038;-67
2023/10/23 13:51:56;;;;;;;8.32;1.10;;;;;;;17.66;61.95;99762.31;10297349;28;20051;-67
2023/10/23 13:56:57;;;;;;;4.25;1.10;;;;;;;17.62;62.22;99755.69;10322572;28;20038;-66
2023/10/23 14:01:59;;;;;;;2.83;0.80;;;;;;;17.66;62.10;99740.56;10280400;28;20054;-67
2023/10/23 14:07:01;;;;;;;5.15;0.68;;;;;;;17.67;62.11;99711.47;10319103;28;20160;-67
2023/10/23 14:12:02;;;;;;;2.63;0.55;;;;;;;17.63;62.05;99717.41;10323038;28;20053;-66
2023/10/23 14:17:04;;;;;;;5.00;0.68;;;;;;;17.61;62.08;99721.41;10321368;28;20049;-66
2023/10/23 14:22:06;;;;;;;2.53;0.60;;;;;;;17.62;62.00;99723.06;10319258;28;20053;-66
2023/10/23 14:27:08;;;;;;;4.38;0.50;;;;;;;17.46;62.46;99727.34;10320261;28;20587;-67
2023/10/23 14:32:10;;;;;;;2.35;0.50;;;;;;;17.53;62.16;99714.44;10318464;28;20070;-66
2023/10/23 14:37:12;;;;;;;3.20;0.68;;;;;;;17.53;62.24;99710.91;10331656;28;20061;-65
2023/10/23 14:42:13;;;;;;;4.35;0.55;;;;;;;17.54;62.06;99704.41;10319316;28;20049;-66
2023/10/23 14:47:15;;;;;;;4.63;1.23;;;;;;;17.58;61.70;99702.88;10319465;28;20057;-66
2023/10/23 14:52:17;;;;;;;2.25;0.40;;;;;;;17.64;61.35;99689.16;10320651;28;20405;-66
2023/10/23 14:57:18;;;;;;;4.63;0.40;;;;;;;17.57;61.21;99676.75;10314056;28;20120;-65
2023/10/23 15:02:19;;;;;;;1.25;0.38;;;;;;;17.56;61.02;99669.66;10331786;28;20042;-65
2023/10/23 15:07:21;;;;;;;6.70;0.70;;;;;;;17.56;60.67;99659.63;10330710;28;20125;-67
2023/10/23 15:12:22;;;;;;;1.75;0.50;;;;;;;17.55;60.66;99647.09;10314637;28;20137;-69
2023/10/23 15:17:24;;;;;;;5.90;0.45;;;;;;;17.54;60.75;99634.56;10317351;28;20408;-68
2023/10/23 15:22:26;;;;;;;4.65;0.47;;;;;;;17.51;60.53;99623.34;10319493;28;20054;-68
2023/10/23 15:27:27;;;;;;;4.45;0.60;;;;;;;17.46;60.49;99607.78;10319670;28;20049;-69
2023/10/23 15:32:31;;;;;;;1.25;0.40;;;;;;;17.37;60.69;99598.34;10317742;28;20134;-68
2023/10/23 15:37:33;;;;;;;5.50;0.40;;;;;;;17.10;61.55;99598.84;10320990;28;21297;-72
2023/10/23 15:42:34;;;;;;;4.00;0.50;;;;;;;16.80;62.58;99596.22;10319002;28;20042;-70
2023/10/23 15:47:35;;;;;;;4.32;0.60;;;;;;;16.61;63.53;99593.63;10320406;28;20042;-71
2023/10/23 15:52:37;;;;;;;3.80;0.35;;;;;;;16.41;63.94;99583.09;10322338;28;20527;-70
2023/10/23 15:57:38;;;;;;;4.95;0.60;;;;;;;16.34;64.32;99573.41;10316398;28;20077;-71
2023/10/23 16:02:40;;;;;;;1.58;0.50;;;;;;;16.26;64.46;99575.38;10316374;28;20062;-70
2023/10/23 16:07:41;;;;;;;5.30;0.70;;;;;;;15.96;65.05;99591.69;10350181;28;20034;-70
2023/10/23 16:12:43;;;;;;;5.63;1.10;;;;;;;15.74;66.07;99604.06;10330753;28;20048;-68
2023/10/23 16:17:44;;;;;;;5.32;1.00;;;;;;;15.57;66.75;99611.97;10307757;28;20045;-69
2023/10/23 16:22:46;;;;;;;5.35;1.30;;;;;;;15.45;67.19;99601.91;10316247;28;20045;-62
2023/10/23 16:27:47;;;;;;;4.57;1.42;;;;;;;15.50;67.16;99594.97;10320855;28;20130;-64
2023/10/23 16:32:53;;;;;;;6.10;1.50;;;;;;;15.44;67.28;99584.00;10324953;28;20053;-63
2023/10/23 16:37:54;;;;;;;5.63;2.13;;;;;;;15.35;67.70;99576.41;10309369;28;20030;-62
2023/10/23 16:42:56;;;;;;;3.63;1.00;;;;;;;15.38;67.95;99573.22;10319414;28;20042;-63
2023/10/23 16:47:58;;;;;;;2.80;1.73;;;;;;;15.26;68.41;99576.72;10325292;28;20409;-61
2023/10/23 16:53:01;;;;;;;6.03;1.77;;;;;;;15.16;68.68;99575.56;10305701;28;20046;-62
2023/10/23 16:58:04;;;;;;;4.25;1.10;;;;;;;15.05;69.27;99591.50;10333027;28;20058;-62
2023/10/23 17:03:06;;;;;;;4.00;1.23;;;;;;;15.02;69.24;99602.78;10320415;28;20042;-64
2023/10/23 17:08:07;;;;;;;9.32;1.30;;;;;;;15.03;69.25;99611.75;10322503;28;20137;-62
2023/10/23 17:13:09;;;;;;;4.15;1.00;;;;;;;14.98;69.81;99619.69;10319757;28;20077;-63
2023/10/23 17:18:10;;;;;;;8.15;1.67;;;;;;;14.98;69.68;99622.41;10321735;28;20521;-64
2023/10/23 17:23:12;;;;;;;9.02;2.22;;;;;;;14.90;70.08;99614.56;10313505;28;20058;-65
2023/10/23 17:28:13;;;;;;;6.60;2.40;;;;;;;14.89;70.08;99616.47;10314854;28;20061;-63
2023/10/23 17:33:16;;;;;;;11.32;2.95;;;;;;;14.76;70.78;99611.16;10312808;28;20402;-64
2023/10/23 17:38:18;;;;;;;7.90;2.83;;;;;;;14.68;70.91;99623.09;10322808;28;20131;-65
2023/10/23 17:43:20;;;;;;;6.70;2.03;;;;;;;14.16;72.81;99636.72;10300621;28;20153;-67
2023/10/23 17:48:21;;;;;;;7.03;2.50;;;;;;;14.27;72.60;99635.19;10319987;28;20105;-65
2023/10/23 17:53:22;;;;;;;6.60;2.85;;;;;;;14.43;72.20;99629.25;10319960;28;20046;-64
2023/10/23 17:58:25;;;;;;;7.63;2.08;;;;;;;14.11;73.19;99655.47;10335169;28;20042;-65
2023/10/23 18:03:26;;;;;;;8.75;3.00;;;;;;;14.16;73.55;99660.22;10321994;28;20069;-63
2023/10/23 18:08:27;;;;;;;7.80;2.40;;;;;;;14.35;73.10;99642.22;10316486;28;20056;-67
2023/10/23 18:13:30;;;;;;;8.88;4.30;;;;;;;14.50;72.78;99598.66;10322576;28;20065;-66
2023/10/23 18:18:31;;;;;;;7.97;3.13;;;;;;;14.41;73.22;99595.38;10320724;28;20057;-66
2023/10/23 18:23:33;;;;;;;5.60;2.65;;;;;;;14.21;73.89;99609.03;10295703;28;20061;-67
2023/10/23 18:28:35;;;;;;;9.52;3.58;;;;;;;14.09;74.51;99615.13;10320818;28;20049;-67
2023/10/23 18:33:36;;;;;;;7.35;3.17;;;;;;;14.04;74.93;99614.13;10319677;28;20050;-66
2023/10/23 18:38:37;;;;;;;8.88;2.97;;;;;;;14.03;75.33;99626.00;10321172;28;20050;-67
2023/10/23 18:43:39;;;;;;;8.25;3.10;;;;;;;14.28;74.34;99628.75;10322758;28;20050;-66
2023/10/23 18:48:41;;;;;;;7.63;3.47;;;;;;;14.36;74.32;99614.97;10334563;28;20081;-67
2023/10/23 18:53:42;;;;;;;10.25;4.50;;;;;;;14.35;74.51;99588.97;10333214;28;20046;-65
2023/10/23 18:58:44;;;;;;;13.13;4.32;;;;;;;14.41;74.60;99588.09;10317415;28;20049;-67
2023/10/23 19:03:45;;;;;;;11.07;4.28;;;;;;;14.47;74.48;99583.69;10320043;28;20505;-66
2023/10/23 19:08:51;;;;;;;10.93;4.63;;;;;;;14.48;74.89;99588.06;10319861;28;20054;-66
2023/10/23 19:13:52;;;;;;;8.05;3.75;;;;;;;14.48;74.77;99586.16;10335877;28;20042;-65
2023/10/23 19:18:54;;;;;;;14.75;4.38;;;;;;;14.41;75.26;99581.84;10316035;28;20057;-66
2023/10/23 19:23:55;;;;;;;9.20;4.25;;;;;;;14.30;75.33;99602.34;10318448;28;20050;-66
2023/10/23 19:28:56;;;;;;;10.55;3.55;;;;;;;14.24;75.89;99612.16;10320758;28;20050;-66
2023/10/23 19:33:58;;;;;;;6.38;2.58;;;;;;;14.20;75.92;99602.81;10318735;28;20141;-66
2023/10/23 19:39:00;;;;;;;10.63;3.80;;;;;;;14.27;75.63;99602.75;10319302;28;20073;-68
2023/10/23 19:44:02;;;;;;;12.43;5.63;;;;;;;14.27;75.84;99563.03;10320889;28;20358;-68
2023/10/23 19:49:05;;;;;;;10.68;4.03;;;;;;;14.17;76.32;99568.09;10314340;28;20042;-67
2023/10/23 19:54:07;;;;;;;11.93;3.72;;;;;;;14.23;76.06;99556.41;10312937;28;20521;-67
2023/10/23 19:59:28;;;;;;;13.23;4.22;;;;;;;14.28;76.14;99521.44;10315700;28;20045;-68
2023/10/23 20:04:31;;;;;;;8.02;4.40;;;;;;;14.32;76.11;99500.22;10313387;28;20142;-67
2023/10/23 20:09:33;;;;;;;12.52;6.55;;;;;;;14.27;76.44;99483.81;10315465;28;20078;-68
2023/10/23 20:14:34;;;;;;;14.75;5.93;;;;;;;14.31;76.44;99473.38;10332603;28;20070;-70
2023/10/23 20:19:36;;;;;;;9.25;4.45;;;;;;;14.30;76.39;99467.16;10315567;28;20043;-68
2023/10/23 20:24:38;;;;;;;7.00;3.50;;;;;;;14.31;76.50;99444.47;10316623;28;20097;-70
2023/10/23 20:29:39;;;;;;;6.25;2.35;;;;;;;14.23;76.74;99426.66;10341331;28;20121;-66
2023/10/23 20:34:41;;;;;;;5.57;2.92;;;;;;;14.10;76.96;99426.81;10321724;28;20069;-68
2023/10/23 20:39:42;;;;;;;7.22;3.00;;;;;;;13.82;77.84;99433.47;10323054;28;20486;-69
2023/10/23 20:44:44;;;;;;;8.90;2.67;;;;;;;13.86;77.83;99429.28;10327959;28;20066;-68
2023/10/23 20:49:46;;;;;;;5.90;2.30;;;;;;;14.02;77.24;99409.00;10340962;28;20073;-69
2023/10/23 20:54:48;;;;;;;6.55;2.85;;;;;;;14.11;77.12;99411.41;10344223;28;20057;-70
2023/10/23 20:59:49;;;;;;;7.47;2.92;;;;;;;13.99;77.37;99422.94;10299985;28;20050;-70
2023/10/23 21:04:51;;;;;;;6.40;2.63;;;;;;;13.94;77.25;99417.38;10306914;28;20040;-69
2023/10/23 21:09:52;;;;;;;5.97;3.08;;;;;;;13.76;77.97;99412.72;10340188;28;20044;-70
2023/10/23 21:14:55;;;;;;;10.38;3.20;;;;;;;13.84;77.81;99417.03;10304688;28;20545;-67
2023/10/23 21:19:56;;;;;;;3.90;2.50;;;;;;;13.78;77.93;99412.50;10324900;28;20039;-69
2023/10/23 21:24:57;;;;;;;10.18;3.42;;;;;;;13.92;77.61;99419.47;10343211;28;20053;-69
2023/10/23 21:29:59;;;;;;;6.47;2.88;;;;;;;13.91;77.85;99414.28;10343758;28;20042;-68
2023/10/23 21:35:00;;;;;;;6.43;2.40;;;;;;;13.90;77.75;99424.25;10328970;28;20062;-68
2023/10/23 21:40:02;;;;;;;6.82;2.55;;;;;;;13.91;78.02;99398.06;10343869;28;20046;-66
2023/10/23 21:45:04;;;;;;;7.40;2.30;;;;;;;14.09;77.29;99385.41;10319913;28;20046;-68
2023/10/23 21:50:06;;;;;;;6.85;2.08;;;;;;;14.18;77.14;99361.66;10315641;28;20596;-67
2023/10/23 21:55:09;;;;;;;4.32;2.88;;;;;;;14.15;77.50;99361.25;10333450;28;20050;-68
2023/10/23 22:00:28;;;;;;;7.10;2.15;;;;;;;14.25;77.16;99372.38;10321302;28;20061;-67
2023/10/23 22:05:30;;;;;;;5.13;2.30;;;;;;;14.29;76.83;99360.88;10292144;28;20046;-68
2023/10/23 22:10:32;;;;;;;4.15;2.10;;;;;;;14.24;76.82;99362.63;10315624;28;20093;-68
2023/10/23 22:15:33;;;;;;;2.72;1.73;;;;;;;14.22;76.87;99360.13;10316653;28;20046;-66
2023/10/23 22:20:35;;;;;;;3.72;1.83;;;;;;;14.22;77.00;99364.72;10316998;28;20064;-67
2023/10/23 22:25:36;;;;;;;2.72;1.88;;;;;;;14.29;76.77;99354.66;10317345;28;20046;-66
2023/10/23 22:30:38;;;;;;;4.63;2.17;;;;;;;14.38;76.47;99353.31;10318193;28;20042;-66
2023/10/23 22:35:39;;;;;;;3.33;2.03;;;;;;;14.48;76.28;99358.19;10316892;28;20043;-66
2023/10/23 22:40:42;;;;;;;5.78;2.20;;;;;;;14.47;76.15;99365.50;10318292;28;20050;-66
2023/10/23 22:45:43;;;;;;;3.45;2.15;;;;;;;14.51;76.26;99343.38;10316578;28;20077;-65
2023/10/23 22:51:03;;;;;;;4.07;2.08;;;;;;;14.53;76.43;99333.97;10316645;28;20130;-66
2023/10/23 22:56:07;;;;;;;6.25;2.90;;;;;;;14.55;76.21;99325.66;10314121;28;20050;-66
2023/10/23 23:01:09;;;;;;;3.53;1.30;;;;;;;14.51;76.65;99332.56;10313079;28;20609;-66
2023/10/23 23:06:11;;;;;;;2.33;1.30;;;;;;;14.39;76.90;99338.72;10315785;28;20062;-66
2023/10/23 23:11:12;;;;;;;6.88;1.88;;;;;;;14.34;77.00;99333.19;10317578;28;20423;-65
2023/10/23 23:16:17;;;;;;;3.92;1.75;;;;;;;14.39;76.79;99332.50;10316960;28;20042;-66
2023/10/23 23:21:21;;;;;;;6.65;1.65;;;;;;;14.52;76.42;99321.53;10318340;28;20605;-66